Inwood, WV (25428)

2:30 PM EDT on April 28, 2015 (GMT -0400)
Boyds Crossing | | Change Station
CLOSE
Current Station
Personal Weather Station
Location: Bunker Hill, WV
Elevation: 561 ft
Nearby Weather Stations

Elev 561 ft 39.33 °N, 78.06 °W | Updated 13 seconds ago

Mostly Cloudy
Mostly Cloudy
69.4 °F
Feels Like 69.4 °F
N
0.0
Wind Variable Wind from WNW
Gusts 0.0 mph

Today
High -- | Low -- °F
--% Chance of Precip.
Yesterday
High -- | Low -- °F
Precip. -- in
6:17 AM 8:02 PM
Waxing Gibbous, 75% visible
Pressure 29.91 in
Visibility 10.0 miles
Clouds Mostly Cloudy 7000 ft
Dew Point 41 °F
Humidity 36%
Rainfall 0.00 in
Snow Depth Not available.
UV 9.0 out of 12
Pollen 10.60 out of 12
Air Quality Not available.
Flu Activity Sporadic
METAR KMRB 281753Z 33009G17KT 10SM BKN070 19/03 A2991 RMK AO2 SLP128 T01890033 10200 20100 58017

More Conditions Fewer Conditions

Pressure 29.91 in
Visibility 10.0 miles
Clouds Mostly Cloudy 7000 ft
Dew Point 41 °F
Humidity 36%
Rainfall 0.00 in
Snow Depth Not available.
UV 9.0 out of 12
Pollen 10.60 out of 12
Air Quality Not available.
Flu Activity Sporadic
METAR KMRB 281753Z 33009G17KT 10SM BKN070 19/03 A2991 RMK AO2 SLP128 T01890033 10200 20100 58017

More Conditions Fewer Conditions

10-Day Weather Forecast

Almanac

Astronomy

Apr. 28, 2015 Rise Set
Actual Time
Civil Twilight
Nautical Twilight
Astronomical Twilight
Moon
Length of Visible Light
Length of Day
Tomorrow will be .
, % of the Moon is Illuminated

Today's Extremes

State Highs State Lows

Community

WunderPhotos

Upload Photos

1,817,720 photos uploaded!

WunderBlogs® & News

Nearby

Air Quality

  Air Quality AQ Index Pollutant
Not available.

Snow Depth

Station Depth Elevation

Earthquake Activity

City Distance Mag. Time & Date
Minimum magnitude displayed is 2.5.

Coastal Water Temperatures

Place Temperature

Stations

Nearby Weather Stations

Station Location Temp. Windchill Dew Point Humidity Wind Precip. Elev Updated Type